createdAt,value
2022-11-29T00:01:42.236Z,9.30
2022-11-29T00:04:12.324Z,9.20
2022-11-29T00:06:41.285Z,8.60
2022-11-29T00:09:12.749Z,7.95
2022-11-29T00:11:59.628Z,7.78
2022-11-29T00:14:30.008Z,6.72
2022-11-29T00:17:02.478Z,6.63
2022-11-29T00:19:33.797Z,6.45
2022-11-29T00:22:02.846Z,6.60
2022-11-29T00:24:32.821Z,7.30
2022-11-29T00:27:02.255Z,6.43
2022-11-29T00:29:31.409Z,7.22
2022-11-29T00:32:00.574Z,10.95
2022-11-29T00:34:29.303Z,8.40
2022-11-29T00:36:59.014Z,8.70
2022-11-29T00:39:27.440Z,6.43
2022-11-29T00:41:56.069Z,7.18
2022-11-29T00:44:24.330Z,7.10
2022-11-29T00:49:23.589Z,12.32
2022-11-29T00:51:52.351Z,11.05
2022-11-29T00:54:22.293Z,10.30
2022-11-29T00:56:50.552Z,8.55
2022-11-29T01:01:47.243Z,7.43
2022-11-29T01:04:15.716Z,8.10
2022-11-29T01:06:44.473Z,10.40
2022-11-29T01:09:12.855Z,10.18
2022-11-29T01:11:42.587Z,8.90
2022-11-29T01:14:13.663Z,7.70
2022-11-29T01:16:42.385Z,6.47
2022-11-29T01:19:10.883Z,6.72
2022-11-29T01:21:39.386Z,8.75
2022-11-29T01:24:07.777Z,6.72
2022-11-29T01:26:36.143Z,7.85
2022-11-29T01:29:05.995Z,9.30
2022-11-29T01:31:36.676Z,7.18
2022-11-29T01:34:06.901Z,8.00
2022-11-29T01:36:35.970Z,7.03
2022-11-29T01:39:06.375Z,4.72
2022-11-29T01:41:36.536Z,6.65
2022-11-29T01:44:09.057Z,5.20
2022-11-29T01:46:39.212Z,5.30
2022-11-29T01:49:12.850Z,5.53
2022-11-29T01:51:44.291Z,5.43
2022-11-29T01:54:14.510Z,6.32
2022-11-29T01:56:44.403Z,5.00
2022-11-29T01:59:17.150Z,4.80
2022-11-29T02:01:45.489Z,4.15
2022-11-29T02:04:14.736Z,4.43
2022-11-29T02:06:43.822Z,4.20
2022-11-29T02:09:20.079Z,4.53
2022-11-29T02:12:03.567Z,4.20
2022-11-29T02:14:57.237Z,3.65
2022-11-29T02:17:33.208Z,4.05
2022-11-29T02:20:31.734Z,3.58
2022-11-29T02:23:18.061Z,4.25
2022-11-29T02:26:03.362Z,3.28
2022-11-29T02:28:51.268Z,3.22
2022-11-29T02:31:54.707Z,3.47
2022-11-29T02:34:48.005Z,3.60
2022-11-29T02:37:37.478Z,3.83
2022-11-29T02:40:24.069Z,3.63
2022-11-29T02:43:12.389Z,4.18
2022-11-29T02:45:51.498Z,3.53
2022-11-29T02:48:42.693Z,4.43
2022-11-29T02:51:18.908Z,4.10
2022-11-29T02:53:56.690Z,3.72
2022-11-29T02:56:30.600Z,4.80
2022-11-29T02:59:04.849Z,3.65
2022-11-29T03:01:41.721Z,3.92
2022-11-29T03:04:16.802Z,4.10
2022-11-29T03:06:55.926Z,4.20
2022-11-29T03:09:33.975Z,4.25
2022-11-29T03:12:08.369Z,4.43
2022-11-29T03:14:47.947Z,4.07
2022-11-29T03:17:26.248Z,3.72
2022-11-29T03:20:08.691Z,3.22
2022-11-29T03:22:45.133Z,3.40
2022-11-29T03:25:19.825Z,3.38
2022-11-29T03:27:51.336Z,3.72
2022-11-29T03:30:22.104Z,3.95
2022-11-29T03:32:58.069Z,3.58
2022-11-29T03:35:34.033Z,4.00
2022-11-29T03:38:14.476Z,3.60
2022-11-29T03:40:50.688Z,3.83
2022-11-29T03:43:25.004Z,3.80
2022-11-29T03:45:59.657Z,3.83
2022-11-29T03:48:34.192Z,3.25
2022-11-29T03:51:07.042Z,3.38
2022-11-29T03:53:43.252Z,2.97
2022-11-29T03:56:28.306Z,2.88
2022-11-29T03:59:05.909Z,2.97
2022-11-29T04:02:11.569Z,3.08
2022-11-29T04:05:16.403Z,3.30
2022-11-29T04:07:56.588Z,2.65
2022-11-29T04:10:53.936Z,3.15
2022-11-29T04:13:58.991Z,2.60
2022-11-29T04:17:03.763Z,2.22
2022-11-29T04:20:01.595Z,1.98
2022-11-29T04:25:33.713Z,2.10
2022-11-29T04:28:27.303Z,2.22
2022-11-29T04:31:05.360Z,3.00
2022-11-29T04:36:31.013Z,2.15
2022-11-29T04:39:18.589Z,1.90
2022-11-29T04:42:09.723Z,3.00
2022-11-29T04:45:06.534Z,1.90
2022-11-29T04:47:56.790Z,1.83
2022-11-29T04:50:34.803Z,1.35
2022-11-29T04:53:30.944Z,1.42
2022-11-29T04:56:11.541Z,1.48
2022-11-29T04:58:47.422Z,1.40
2022-11-29T05:01:27.318Z,1.25
2022-11-29T05:04:03.343Z,1.00
2022-11-29T05:06:40.770Z,1.15
2022-11-29T05:09:20.421Z,1.00
2022-11-29T05:12:02.645Z,2.45
2022-11-29T05:14:42.559Z,1.08
2022-11-29T05:17:30.921Z,0.98
2022-11-29T05:22:54.218Z,1.92
2022-11-29T05:25:39.160Z,0.90
2022-11-29T05:28:13.583Z,1.58
2022-11-29T05:31:04.397Z,1.67
2022-11-29T05:34:00.378Z,1.30
2022-11-29T05:36:40.127Z,2.10
2022-11-29T05:39:32.482Z,1.40
2022-11-29T05:42:20.700Z,2.53
2022-11-29T05:44:54.257Z,1.42
2022-11-29T05:47:31.666Z,1.10
2022-11-29T05:50:07.164Z,1.52
2022-11-29T05:52:49.081Z,1.67
2022-11-29T05:55:31.025Z,1.60
2022-11-29T05:58:03.427Z,1.27
2022-11-29T06:00:42.258Z,1.33
2022-11-29T06:03:19.200Z,1.38
2022-11-29T06:05:54.055Z,1.40
2022-11-29T06:08:32.933Z,1.27
2022-11-29T06:11:06.783Z,1.40
2022-11-29T06:13:51.426Z,1.55
2022-11-29T06:17:02.009Z,1.73
2022-11-29T06:19:53.282Z,1.42
2022-11-29T06:22:35.059Z,1.30
2022-11-29T06:25:17.814Z,1.83
2022-11-29T06:28:05.878Z,1.30
